Overview Statistics Trail Chart Weather Telemetry Raw packets
 

This is the latest recevied weather packets stored in our database for station/object K6CED. If no packets are shown the sender has not sent any weather packets the latest 10 day(s).

<< 78 79 80 81 82 83 84 >>
Time Temp. Humidity Pressure Rain* Wind** Luminosity Snow
1788100584 22.22° C 74% 1015.4 hPa 0 mm - 130 W/m² -
1788100282 21.67° C 75% 1015.6 hPa 0 mm - 117 W/m² -
1788099978 21.11° C 77% 1015.8 hPa 0 mm - 98 W/m² -
1788099672 20.56° C 80% 1015.7 hPa 0 mm - 88 W/m² -
1788099368 19.44° C 81% 1015.5 hPa 0 mm - 64 W/m² -
1788099063 19.44° C 81% 1015.8 hPa 0 mm - 42 W/m² -
1788098757 19.44° C 81% 1015.8 hPa 0 mm - 41 W/m² -
1788098452 18.89° C 81% 1015.7 hPa 0 mm - 48 W/m² -
1788098147 18.33° C 83% 1015.6 hPa 0 mm - 30 W/m² -
1788097842 18.33° C 84% 1015.6 hPa 0 mm - 24 W/m² -
1788097538 18.33° C 85% 1015.7 hPa 0 mm - 20 W/m² -
1788097233 18.33° C 86% 1015.5 hPa 0 mm - 16 W/m² -
1788096929 18.33° C 86% 1015.5 hPa 0 mm - 12 W/m² -
1788096624 18.33° C 87% 1015.3 hPa 0 mm - 8 W/m² -
1788096320 18.33° C 86% 1015.2 hPa 0 mm - 5 W/m² -
1788096015 18.33° C 86% 1015.1 hPa 0 mm - 3 W/m² -
1788095714 18.33° C 87% 1015.4 hPa 0 mm - 2 W/m² -
1788095409 18.89° C 88% 1015 hPa 0 mm - 1 W/m² -
1788095104 18.89° C 89% 1015.3 hPa 0 mm - 0 W/m² -
1788094804 18.89° C 88% 1015.2 hPa 0 mm - 0 W/m² -
1788094498 18.89° C 86% 1015 hPa 0 mm - 0 W/m² -
1788094196 18.33° C 84% 1015.1 hPa 0 mm - 0 W/m² -
1788093891 18.33° C 82% 1015.1 hPa 0 mm - 0 W/m² -
1788093587 18.33° C 83% 1015.1 hPa 0 mm - 0 W/m² -
1788093296 18.33° C 83% 1015.1 hPa 0 mm - 0 W/m² -

* Rain latest hour (hover to see other rain measurements)
** Current wind speed in m/s (hover to see current wind gust speed)